sensor_id;sensor_type;location;lat;lon;timestamp;temperature;humidity
40323;DHT22;26030;51.164;17.100;2023-04-24T00:00:17;23.80;64.40
40323;DHT22;26030;51.164;17.100;2023-04-24T00:05:42;23.90;64.10
40323;DHT22;26030;51.164;17.100;2023-04-24T00:10:46;24.00;63.70
40323;DHT22;26030;51.164;17.100;2023-04-24T00:15:50;24.10;63.30
40323;DHT22;26030;51.164;17.100;2023-04-24T00:20:54;24.20;63.00
40323;DHT22;26030;51.164;17.100;2023-04-24T00:25:58;24.30;62.70
40323;DHT22;26030;51.164;17.100;2023-04-24T00:31:02;24.40;62.40
40323;DHT22;26030;51.164;17.100;2023-04-24T00:36:06;24.50;62.20
40323;DHT22;26030;51.164;17.100;2023-04-24T00:41:11;24.50;62.10
40323;DHT22;26030;51.164;17.100;2023-04-24T00:46:16;24.50;62.80
40323;DHT22;26030;51.164;17.100;2023-04-24T00:51:20;24.40;62.20
40323;DHT22;26030;51.164;17.100;2023-04-24T00:56:24;24.30;62.70
40323;DHT22;26030;51.164;17.100;2023-04-24T01:01:28;24.30;62.50
40323;DHT22;26030;51.164;17.100;2023-04-24T01:06:33;24.20;62.50
40323;DHT22;26030;51.164;17.100;2023-04-24T01:11:38;24.20;62.50
40323;DHT22;26030;51.164;17.100;2023-04-24T01:16:47;24.10;62.80
40323;DHT22;26030;51.164;17.100;2023-04-24T01:21:51;24.20;62.30
40323;DHT22;26030;51.164;17.100;2023-04-24T01:26:57;24.30;62.20
40323;DHT22;26030;51.164;17.100;2023-04-24T01:32:02;24.30;62.00
40323;DHT22;26030;51.164;17.100;2023-04-24T01:37:07;24.30;62.10
40323;DHT22;26030;51.164;17.100;2023-04-24T01:42:12;24.40;61.90
40323;DHT22;26030;51.164;17.100;2023-04-24T01:47:16;24.50;61.90
40323;DHT22;26030;51.164;17.100;2023-04-24T01:52:20;24.50;61.70
40323;DHT22;26030;51.164;17.100;2023-04-24T01:57:25;24.60;61.70
40323;DHT22;26030;51.164;17.100;2023-04-24T02:02:29;24.60;61.70
40323;DHT22;26030;51.164;17.100;2023-04-24T02:07:34;24.60;61.80
40323;DHT22;26030;51.164;17.100;2023-04-24T02:12:38;24.60;61.70
40323;DHT22;26030;51.164;17.100;2023-04-24T02:17:42;24.60;61.50
40323;DHT22;26030;51.164;17.100;2023-04-24T02:22:46;24.60;61.50
40323;DHT22;26030;51.164;17.100;2023-04-24T02:27:50;24.50;61.80
40323;DHT22;26030;51.164;17.100;2023-04-24T02:32:54;24.40;62.00
40323;DHT22;26030;51.164;17.100;2023-04-24T02:37:59;24.30;62.10
40323;DHT22;26030;51.164;17.100;2023-04-24T02:43:03;24.30;62.10
40323;DHT22;26030;51.164;17.100;2023-04-24T02:48:07;24.30;61.90
40323;DHT22;26030;51.164;17.100;2023-04-24T02:53:11;24.30;61.70
40323;DHT22;26030;51.164;17.100;2023-04-24T02:58:15;24.40;61.50
40323;DHT22;26030;51.164;17.100;2023-04-24T03:03:20;24.40;61.10
40323;DHT22;26030;51.164;17.100;2023-04-24T03:08:25;24.40;61.40
40323;DHT22;26030;51.164;17.100;2023-04-24T03:13:29;24.30;63.20
40323;DHT22;26030;51.164;17.100;2023-04-24T03:18:33;24.20;62.60
40323;DHT22;26030;51.164;17.100;2023-04-24T03:23:38;24.10;62.30
40323;DHT22;26030;51.164;17.100;2023-04-24T03:28:43;24.10;62.90
40323;DHT22;26030;51.164;17.100;2023-04-24T03:33:47;24.00;62.50
40323;DHT22;26030;51.164;17.100;2023-04-24T03:38:52;23.90;62.90
40323;DHT22;26030;51.164;17.100;2023-04-24T03:44:05;23.90;62.70
40323;DHT22;26030;51.164;17.100;2023-04-24T03:49:10;23.90;63.00
40323;DHT22;26030;51.164;17.100;2023-04-24T03:54:17;23.90;62.60
40323;DHT22;26030;51.164;17.100;2023-04-24T03:59:21;23.80;62.90
40323;DHT22;26030;51.164;17.100;2023-04-24T04:04:36;23.80;62.90
40323;DHT22;26030;51.164;17.100;2023-04-24T04:09:41;23.70;63.00
40323;DHT22;26030;51.164;17.100;2023-04-24T04:14:45;23.70;63.00
40323;DHT22;26030;51.164;17.100;2023-04-24T04:19:50;23.70;63.20
40323;DHT22;26030;51.164;17.100;2023-04-24T04:24:54;23.70;62.90
40323;DHT22;26030;51.164;17.100;2023-04-24T04:29:59;23.70;63.10
40323;DHT22;26030;51.164;17.100;2023-04-24T04:35:15;23.70;63.20
40323;DHT22;26030;51.164;17.100;2023-04-24T04:40:19;23.60;62.90
40323;DHT22;26030;51.164;17.100;2023-04-24T04:45:33;23.60;62.90
40323;DHT22;26030;51.164;17.100;2023-04-24T04:51:07;23.60;63.40
40323;DHT22;26030;51.164;17.100;2023-04-24T04:56:12;23.60;63.00
40323;DHT22;26030;51.164;17.100;2023-04-24T05:01:18;23.50;63.60
40323;DHT22;26030;51.164;17.100;2023-04-24T05:06:23;23.50;63.60
40323;DHT22;26030;51.164;17.100;2023-04-24T05:11:28;23.40;63.80
40323;DHT22;26030;51.164;17.100;2023-04-24T05:16:33;23.40;63.70
40323;DHT22;26030;51.164;17.100;2023-04-24T05:21:37;23.40;64.20
40323;DHT22;26030;51.164;17.100;2023-04-24T05:26:43;23.40;63.60
40323;DHT22;26030;51.164;17.100;2023-04-24T05:31:48;23.40;64.00
40323;DHT22;26030;51.164;17.100;2023-04-24T05:36:52;23.40;63.90
40323;DHT22;26030;51.164;17.100;2023-04-24T05:41:57;23.40;63.80
40323;DHT22;26030;51.164;17.100;2023-04-24T05:47:01;23.40;64.10
40323;DHT22;26030;51.164;17.100;2023-04-24T05:52:06;23.40;63.80
40323;DHT22;26030;51.164;17.100;2023-04-24T05:57:13;23.30;63.70
40323;DHT22;26030;51.164;17.100;2023-04-24T06:02:24;23.30;63.70
40323;DHT22;26030;51.164;17.100;2023-04-24T06:07:30;23.30;63.80
40323;DHT22;26030;51.164;17.100;2023-04-24T06:12:37;23.40;63.80
40323;DHT22;26030;51.164;17.100;2023-04-24T06:17:45;23.40;64.30
40323;DHT22;26030;51.164;17.100;2023-04-24T06:22:51;23.40;64.70
40323;DHT22;26030;51.164;17.100;2023-04-24T06:27:55;23.40;63.90
40323;DHT22;26030;51.164;17.100;2023-04-24T06:33:00;23.40;64.00
40323;DHT22;26030;51.164;17.100;2023-04-24T06:38:21;23.40;63.80
40323;DHT22;26030;51.164;17.100;2023-04-24T06:43:25;23.60;63.80
40323;DHT22;26030;51.164;17.100;2023-04-24T06:48:29;23.40;63.50
40323;DHT22;26030;51.164;17.100;2023-04-24T06:53:33;23.60;63.80
40323;DHT22;26030;51.164;17.100;2023-04-24T06:58:37;23.60;64.30
40323;DHT22;26030;51.164;17.100;2023-04-24T07:03:42;23.50;64.60
40323;DHT22;26030;51.164;17.100;2023-04-24T07:08:46;23.40;63.90
40323;DHT22;26030;51.164;17.100;2023-04-24T07:13:51;23.40;63.80
40323;DHT22;26030;51.164;17.100;2023-04-24T07:18:55;23.40;64.40
40323;DHT22;26030;51.164;17.100;2023-04-24T07:23:59;23.40;64.10
40323;DHT22;26030;51.164;17.100;2023-04-24T07:29:03;23.50;63.30
40323;DHT22;26030;51.164;17.100;2023-04-24T07:34:07;23.50;63.30
40323;DHT22;26030;51.164;17.100;2023-04-24T07:39:12;23.50;63.50
40323;DHT22;26030;51.164;17.100;2023-04-24T07:44:16;23.60;63.40
40323;DHT22;26030;51.164;17.100;2023-04-24T07:49:20;23.50;63.20
40323;DHT22;26030;51.164;17.100;2023-04-24T07:54:24;23.50;63.40
40323;DHT22;26030;51.164;17.100;2023-04-24T07:59:28;23.50;63.40
40323;DHT22;26030;51.164;17.100;2023-04-24T08:04:32;23.40;63.50
40323;DHT22;26030;51.164;17.100;2023-04-24T08:09:36;23.40;64.00
40323;DHT22;26030;51.164;17.100;2023-04-24T08:14:40;23.50;63.80
40323;DHT22;26030;51.164;17.100;2023-04-24T08:19:45;23.50;63.70
40323;DHT22;26030;51.164;17.100;2023-04-24T08:24:51;23.50;63.70
40323;DHT22;26030;51.164;17.100;2023-04-24T08:29:56;23.50;63.90
40323;DHT22;26030;51.164;17.100;2023-04-24T08:35:01;23.60;63.80
40323;DHT22;26030;51.164;17.100;2023-04-24T08:40:12;23.50;63.50
40323;DHT22;26030;51.164;17.100;2023-04-24T08:45:19;23.50;63.90
40323;DHT22;26030;51.164;17.100;2023-04-24T08:50:24;23.50;63.30
40323;DHT22;26030;51.164;17.100;2023-04-24T08:55:29;23.60;63.10
40323;DHT22;26030;51.164;17.100;2023-04-24T09:00:34;23.60;63.10
40323;DHT22;26030;51.164;17.100;2023-04-24T09:05:39;23.60;63.00
40323;DHT22;26030;51.164;17.100;2023-04-24T09:10:44;23.60;63.10
40323;DHT22;26030;51.164;17.100;2023-04-24T09:15:51;23.60;63.10
40323;DHT22;26030;51.164;17.100;2023-04-24T09:20:59;23.60;63.30
40323;DHT22;26030;51.164;17.100;2023-04-24T09:26:08;23.70;63.00
40323;DHT22;26030;51.164;17.100;2023-04-24T09:31:14;23.60;63.20
40323;DHT22;26030;51.164;17.100;2023-04-24T09:36:28;23.50;63.50
40323;DHT22;26030;51.164;17.100;2023-04-24T09:41:52;23.50;63.70
40323;DHT22;26030;51.164;17.100;2023-04-24T09:46:59;23.60;63.60
40323;DHT22;26030;51.164;17.100;2023-04-24T09:52:10;23.60;63.40
40323;DHT22;26030;51.164;17.100;2023-04-24T09:57:15;23.60;63.40
40323;DHT22;26030;51.164;17.100;2023-04-24T10:02:19;23.60;63.70
40323;DHT22;26030;51.164;17.100;2023-04-24T10:07:27;23.60;63.10
40323;DHT22;26030;51.164;17.100;2023-04-24T10:12:33;23.60;63.10
40323;DHT22;26030;51.164;17.100;2023-04-24T10:17:37;23.80;63.00
40323;DHT22;26030;51.164;17.100;2023-04-24T10:22:43;23.70;62.80
40323;DHT22;26030;51.164;17.100;2023-04-24T10:27:53;23.60;64.10
40323;DHT22;26030;51.164;17.100;2023-04-24T10:33:03;23.70;64.10
40323;DHT22;26030;51.164;17.100;2023-04-24T10:38:13;23.70;64.00
40323;DHT22;26030;51.164;17.100;2023-04-24T10:43:20;23.70;64.00
40323;DHT22;26030;51.164;17.100;2023-04-24T10:48:26;23.60;63.50
40323;DHT22;26030;51.164;17.100;2023-04-24T10:53:31;23.60;63.30
40323;DHT22;26030;51.164;17.100;2023-04-24T11:03:50;23.70;62.80
40323;DHT22;26030;51.164;17.100;2023-04-24T11:09:05;23.70;63.00
40323;DHT22;26030;51.164;17.100;2023-04-24T11:14:10;23.70;63.20
40323;DHT22;26030;51.164;17.100;2023-04-24T11:19:20;23.70;62.90
40323;DHT22;26030;51.164;17.100;2023-04-24T11:24:32;23.70;62.60
40323;DHT22;26030;51.164;17.100;2023-04-24T11:40:02;23.70;62.60
40323;DHT22;26030;51.164;17.100;2023-04-24T11:45:10;23.70;62.00
40323;DHT22;26030;51.164;17.100;2023-04-24T11:50:20;23.60;62.00
40323;DHT22;26030;51.164;17.100;2023-04-24T11:55:27;23.70;62.60
40323;DHT22;26030;51.164;17.100;2023-04-24T12:00:32;23.70;61.80
40323;DHT22;26030;51.164;17.100;2023-04-24T12:05:40;23.70;61.70
40323;DHT22;26030;51.164;17.100;2023-04-24T12:10:44;23.70;61.90
40323;DHT22;26030;51.164;17.100;2023-04-24T12:15:56;23.70;61.70
40323;DHT22;26030;51.164;17.100;2023-04-24T12:21:20;23.70;61.80
40323;DHT22;26030;51.164;17.100;2023-04-24T12:26:27;23.60;61.70
40323;DHT22;26030;51.164;17.100;2023-04-24T12:31:32;23.70;61.70
40323;DHT22;26030;51.164;17.100;2023-04-24T12:36:36;23.60;61.60
40323;DHT22;26030;51.164;17.100;2023-04-24T12:41:49;23.60;61.60
40323;DHT22;26030;51.164;17.100;2023-04-24T12:46:55;23.60;61.70
40323;DHT22;26030;51.164;17.100;2023-04-24T12:51:59;23.50;61.60
40323;DHT22;26030;51.164;17.100;2023-04-24T12:57:03;23.50;61.50
40323;DHT22;26030;51.164;17.100;2023-04-24T13:02:07;23.50;61.50
40323;DHT22;26030;51.164;17.100;2023-04-24T13:07:13;23.40;61.40
40323;DHT22;26030;51.164;17.100;2023-04-24T13:12:18;23.50;61.50
40323;DHT22;26030;51.164;17.100;2023-04-24T13:17:23;23.40;61.30
40323;DHT22;26030;51.164;17.100;2023-04-24T13:22:27;23.40;61.20
40323;DHT22;26030;51.164;17.100;2023-04-24T13:27:31;23.40;61.10
40323;DHT22;26030;51.164;17.100;2023-04-24T13:32:35;23.40;61.60
40323;DHT22;26030;51.164;17.100;2023-04-24T13:37:40;23.40;61.10
40323;DHT22;26030;51.164;17.100;2023-04-24T13:42:44;23.40;61.10
40323;DHT22;26030;51.164;17.100;2023-04-24T13:47:48;23.40;61.10
40323;DHT22;26030;51.164;17.100;2023-04-24T13:52:54;23.40;61.00
40323;DHT22;26030;51.164;17.100;2023-04-24T13:58:02;23.40;61.30
40323;DHT22;26030;51.164;17.100;2023-04-24T14:03:06;23.30;60.80
40323;DHT22;26030;51.164;17.100;2023-04-24T14:08:10;23.30;60.70
40323;DHT22;26030;51.164;17.100;2023-04-24T14:13:14;23.30;60.90
40323;DHT22;26030;51.164;17.100;2023-04-24T14:18:18;23.40;61.00
40323;DHT22;26030;51.164;17.100;2023-04-24T14:23:23;23.50;61.20
40323;DHT22;26030;51.164;17.100;2023-04-24T14:28:27;23.40;61.30
40323;DHT22;26030;51.164;17.100;2023-04-24T14:33:32;23.40;61.30
40323;DHT22;26030;51.164;17.100;2023-04-24T14:38:36;23.30;62.10
40323;DHT22;26030;51.164;17.100;2023-04-24T14:43:40;23.20;62.80
40323;DHT22;26030;51.164;17.100;2023-04-24T14:48:45;23.40;63.40
40323;DHT22;26030;51.164;17.100;2023-04-24T14:53:49;23.40;63.60
40323;DHT22;26030;51.164;17.100;2023-04-24T14:58:53;23.40;63.20
40323;DHT22;26030;51.164;17.100;2023-04-24T15:03:57;23.40;63.60
40323;DHT22;26030;51.164;17.100;2023-04-24T15:09:01;23.40;63.80
40323;DHT22;26030;51.164;17.100;2023-04-24T15:14:05;23.40;63.30
40323;DHT22;26030;51.164;17.100;2023-04-24T15:19:09;23.40;63.40
40323;DHT22;26030;51.164;17.100;2023-04-24T15:24:14;23.40;63.70
40323;DHT22;26030;51.164;17.100;2023-04-24T15:29:18;23.50;65.30
40323;DHT22;26030;51.164;17.100;2023-04-24T15:34:23;23.60;67.00
40323;DHT22;26030;51.164;17.100;2023-04-24T15:39:27;23.60;67.90
40323;DHT22;26030;51.164;17.100;2023-04-24T15:44:32;23.60;69.30
40323;DHT22;26030;51.164;17.100;2023-04-24T15:49:36;23.70;68.70
40323;DHT22;26030;51.164;17.100;2023-04-24T15:54:40;23.60;67.40
40323;DHT22;26030;51.164;17.100;2023-04-24T15:59:45;23.40;67.60
40323;DHT22;26030;51.164;17.100;2023-04-24T16:04:49;23.50;67.10
40323;DHT22;26030;51.164;17.100;2023-04-24T16:09:54;23.60;66.20
40323;DHT22;26030;51.164;17.100;2023-04-24T16:14:59;23.70;65.80
40323;DHT22;26030;51.164;17.100;2023-04-24T16:20:05;23.70;65.50
40323;DHT22;26030;51.164;17.100;2023-04-24T16:25:10;23.70;65.20
40323;DHT22;26030;51.164;17.100;2023-04-24T16:30:14;23.60;65.10
40323;DHT22;26030;51.164;17.100;2023-04-24T16:35:19;23.30;65.80
40323;DHT22;26030;51.164;17.100;2023-04-24T16:40:24;23.30;65.80
40323;DHT22;26030;51.164;17.100;2023-04-24T16:45:29;23.30;65.60
40323;DHT22;26030;51.164;17.100;2023-04-24T16:50:33;23.30;65.20
40323;DHT22;26030;51.164;17.100;2023-04-24T16:55:38;23.50;65.00
40323;DHT22;26030;51.164;17.100;2023-04-24T17:00:42;23.60;64.30
40323;DHT22;26030;51.164;17.100;2023-04-24T17:05:48;23.60;64.30
40323;DHT22;26030;51.164;17.100;2023-04-24T17:10:56;23.40;64.30
40323;DHT22;26030;51.164;17.100;2023-04-24T17:16:01;23.40;64.20
40323;DHT22;26030;51.164;17.100;2023-04-24T17:21:07;23.40;63.50
40323;DHT22;26030;51.164;17.100;2023-04-24T17:26:14;23.30;64.20
40323;DHT22;26030;51.164;17.100;2023-04-24T17:31:20;23.30;64.40
40323;DHT22;26030;51.164;17.100;2023-04-24T17:36:29;23.30;64.00
40323;DHT22;26030;51.164;17.100;2023-04-24T17:41:34;23.40;64.70
40323;DHT22;26030;51.164;17.100;2023-04-24T17:46:40;23.40;63.90
40323;DHT22;26030;51.164;17.100;2023-04-24T17:51:48;23.30;63.40
40323;DHT22;26030;51.164;17.100;2023-04-24T17:56:54;23.30;64.00
40323;DHT22;26030;51.164;17.100;2023-04-24T18:01:59;23.30;63.90
40323;DHT22;26030;51.164;17.100;2023-04-24T18:07:05;23.30;63.90
40323;DHT22;26030;51.164;17.100;2023-04-24T18:12:09;23.50;63.80
40323;DHT22;26030;51.164;17.100;2023-04-24T18:17:15;23.60;63.30
40323;DHT22;26030;51.164;17.100;2023-04-24T18:22:20;23.40;63.60
40323;DHT22;26030;51.164;17.100;2023-04-24T18:27:26;23.40;63.80
40323;DHT22;26030;51.164;17.100;2023-04-24T18:32:37;23.30;65.10
40323;DHT22;26030;51.164;17.100;2023-04-24T18:37:44;23.20;64.80
40323;DHT22;26030;51.164;17.100;2023-04-24T18:42:50;23.20;65.20
40323;DHT22;26030;51.164;17.100;2023-04-24T18:47:56;23.10;65.30
40323;DHT22;26030;51.164;17.100;2023-04-24T18:53:01;23.40;64.30
40323;DHT22;26030;51.164;17.100;2023-04-24T18:58:07;23.40;63.80
40323;DHT22;26030;51.164;17.100;2023-04-24T19:03:12;23.50;63.70
40323;DHT22;26030;51.164;17.100;2023-04-24T19:08:19;23.50;63.70
40323;DHT22;26030;51.164;17.100;2023-04-24T19:13:24;23.50;63.20
40323;DHT22;26030;51.164;17.100;2023-04-24T19:18:30;23.60;63.40
40323;DHT22;26030;51.164;17.100;2023-04-24T19:23:37;23.50;63.90
40323;DHT22;26030;51.164;17.100;2023-04-24T19:28:44;23.50;63.30
40323;DHT22;26030;51.164;17.100;2023-04-24T19:33:50;23.50;64.40
40323;DHT22;26030;51.164;17.100;2023-04-24T19:38:55;23.40;64.00
40323;DHT22;26030;51.164;17.100;2023-04-24T19:44:03;23.30;64.20
40323;DHT22;26030;51.164;17.100;2023-04-24T19:49:09;23.30;64.50
40323;DHT22;26030;51.164;17.100;2023-04-24T19:54:15;23.30;64.50
40323;DHT22;26030;51.164;17.100;2023-04-24T19:59:20;23.20;64.70
40323;DHT22;26030;51.164;17.100;2023-04-24T20:04:24;23.40;64.30
40323;DHT22;26030;51.164;17.100;2023-04-24T20:09:30;23.40;64.30
40323;DHT22;26030;51.164;17.100;2023-04-24T20:14:35;23.40;64.40
40323;DHT22;26030;51.164;17.100;2023-04-24T20:19:40;23.40;63.80
40323;DHT22;26030;51.164;17.100;2023-04-24T20:24:45;23.30;63.70
40323;DHT22;26030;51.164;17.100;2023-04-24T20:29:49;23.30;63.90
40323;DHT22;26030;51.164;17.100;2023-04-24T20:34:53;23.30;63.90
40323;DHT22;26030;51.164;17.100;2023-04-24T20:39:57;23.20;63.80
40323;DHT22;26030;51.164;17.100;2023-04-24T20:45:03;23.20;64.20
40323;DHT22;26030;51.164;17.100;2023-04-24T20:50:07;23.10;64.10
40323;DHT22;26030;51.164;17.100;2023-04-24T20:55:12;23.20;66.40
40323;DHT22;26030;51.164;17.100;2023-04-24T21:00:17;23.30;66.30
40323;DHT22;26030;51.164;17.100;2023-04-24T21:05:21;23.30;65.90
40323;DHT22;26030;51.164;17.100;2023-04-24T21:10:25;23.30;65.50
40323;DHT22;26030;51.164;17.100;2023-04-24T21:15:29;23.20;65.30
40323;DHT22;26030;51.164;17.100;2023-04-24T21:20:33;23.10;65.30
40323;DHT22;26030;51.164;17.100;2023-04-24T21:25:38;23.10;65.90
40323;DHT22;26030;51.164;17.100;2023-04-24T21:30:42;23.30;65.40
40323;DHT22;26030;51.164;17.100;2023-04-24T21:35:46;23.40;64.80
40323;DHT22;26030;51.164;17.100;2023-04-24T21:40:50;23.40;64.80
40323;DHT22;26030;51.164;17.100;2023-04-24T21:45:55;23.30;65.00
40323;DHT22;26030;51.164;17.100;2023-04-24T21:50:59;23.40;64.80
40323;DHT22;26030;51.164;17.100;2023-04-24T21:56:03;23.30;64.80
40323;DHT22;26030;51.164;17.100;2023-04-24T22:01:08;23.40;65.10
40323;DHT22;26030;51.164;17.100;2023-04-24T22:06:12;23.30;64.70
40323;DHT22;26030;51.164;17.100;2023-04-24T22:11:17;23.20;64.90
40323;DHT22;26030;51.164;17.100;2023-04-24T22:16:29;23.30;64.40
40323;DHT22;26030;51.164;17.100;2023-04-24T22:21:33;23.20;65.00
40323;DHT22;26030;51.164;17.100;2023-04-24T22:26:38;23.10;65.90
40323;DHT22;26030;51.164;17.100;2023-04-24T22:31:42;23.10;66.40
40323;DHT22;26030;51.164;17.100;2023-04-24T22:36:47;23.40;65.50
40323;DHT22;26030;51.164;17.100;2023-04-24T22:41:51;23.60;64.60
40323;DHT22;26030;51.164;17.100;2023-04-24T22:46:55;23.70;64.30
40323;DHT22;26030;51.164;17.100;2023-04-24T22:52:00;23.80;63.90
40323;DHT22;26030;51.164;17.100;2023-04-24T22:57:07;23.90;63.60
40323;DHT22;26030;51.164;17.100;2023-04-24T23:02:11;24.00;63.30
40323;DHT22;26030;51.164;17.100;2023-04-24T23:07:16;24.10;63.00
40323;DHT22;26030;51.164;17.100;2023-04-24T23:12:20;24.20;63.10
40323;DHT22;26030;51.164;17.100;2023-04-24T23:17:24;24.20;62.50
40323;DHT22;26030;51.164;17.100;2023-04-24T23:22:28;24.30;62.40
40323;DHT22;26030;51.164;17.100;2023-04-24T23:27:33;24.30;62.30
40323;DHT22;26030;51.164;17.100;2023-04-24T23:32:37;24.30;62.30
40323;DHT22;26030;51.164;17.100;2023-04-24T23:37:42;24.30;62.40
40323;DHT22;26030;51.164;17.100;2023-04-24T23:42:46;24.20;62.50
40323;DHT22;26030;51.164;17.100;2023-04-24T23:48:02;24.20;62.80
40323;DHT22;26030;51.164;17.100;2023-04-24T23:53:07;24.10;63.00
40323;DHT22;26030;51.164;17.100;2023-04-24T23:58:11;24.00;63.80
